sensor_id;sensor_type;location;lat;lon;timestamp;pressure;altitude;pressure_sealevel;temperature;humidity
14269;BME280;7218;51.480;7.006;2023-03-20T00:01:11;100903.50;;;13.29;79.57
14269;BME280;7218;51.480;7.006;2023-03-20T00:03:39;100906.06;;;12.85;80.89
14269;BME280;7218;51.480;7.006;2023-03-20T00:06:12;100908.91;;;13.60;78.41
14269;BME280;7218;51.480;7.006;2023-03-20T00:08:40;100908.66;;;13.31;79.18
14269;BME280;7218;51.480;7.006;2023-03-20T00:11:14;100921.09;;;13.63;77.58
14269;BME280;7218;51.480;7.006;2023-03-20T00:13:47;100915.25;;;13.50;78.63
14269;BME280;7218;51.480;7.006;2023-03-20T00:16:14;100916.00;;;13.55;79.00
14269;BME280;7218;51.480;7.006;2023-03-20T00:18:41;100912.38;;;13.62;78.53
14269;BME280;7218;51.480;7.006;2023-03-20T00:21:09;100913.38;;;13.57;nan
14269;BME280;7218;51.480;7.006;2023-03-20T00:23:41;100917.75;;;13.56;78.87
14269;BME280;7218;51.480;7.006;2023-03-20T00:26:11;100911.06;;;13.43;79.32
14269;BME280;7218;51.480;7.006;2023-03-20T00:28:41;100914.09;;;13.23;79.87
14269;BME280;7218;51.480;7.006;2023-03-20T00:31:15;100920.88;;;13.32;78.40
14269;BME280;7218;51.480;7.006;2023-03-20T00:33:44;100912.56;;;13.12;78.99
14269;BME280;7218;51.480;7.006;2023-03-20T00:36:11;100925.47;;;12.73;81.55
14269;BME280;7218;51.480;7.006;2023-03-20T00:38:38;100948.16;;;12.73;80.30
14269;BME280;7218;51.480;7.006;2023-03-20T00:41:19;100927.81;;;12.38;82.32
14269;BME280;7218;51.480;7.006;2023-03-20T00:43:49;100929.81;;;12.74;80.98
14269;BME280;7218;51.480;7.006;2023-03-20T00:46:17;100921.91;;;12.77;79.87
14269;BME280;7218;51.480;7.006;2023-03-20T00:48:45;100923.09;;;13.06;79.60
14269;BME280;7218;51.480;7.006;2023-03-20T00:51:12;100924.06;;;13.02;79.24
14269;BME280;7218;51.480;7.006;2023-03-20T00:53:39;100916.50;;;12.86;78.71
14269;BME280;7218;51.480;7.006;2023-03-20T00:56:26;100910.81;;;12.63;82.09
14269;BME280;7218;51.480;7.006;2023-03-20T00:58:54;100911.09;;;12.46;82.82
14269;BME280;7218;51.480;7.006;2023-03-20T01:01:21;100914.69;;;12.41;81.96
14269;BME280;7218;51.480;7.006;2023-03-20T01:03:47;100909.00;;;12.68;80.74
14269;BME280;7218;51.480;7.006;2023-03-20T01:06:14;100907.06;;;12.29;82.04
14269;BME280;7218;51.480;7.006;2023-03-20T01:08:43;100907.78;;;12.37;81.91
14269;BME280;7218;51.480;7.006;2023-03-20T01:11:11;100911.91;;;12.51;81.69
14269;BME280;7218;51.480;7.006;2023-03-20T01:13:40;100908.28;;;12.59;81.20
14269;BME280;7218;51.480;7.006;2023-03-20T01:16:16;100907.50;;;12.55;81.53
14269;BME280;7218;51.480;7.006;2023-03-20T01:18:44;100910.75;;;12.66;81.01
14269;BME280;7218;51.480;7.006;2023-03-20T01:21:11;100914.59;;;11.92;84.21
14269;BME280;7218;51.480;7.006;2023-03-20T01:23:38;100915.16;;;12.12;83.34
14269;BME280;7218;51.480;7.006;2023-03-20T01:26:16;100912.31;;;12.76;80.65
14269;BME280;7218;51.480;7.006;2023-03-20T01:28:47;100905.59;;;12.63;82.17
14269;BME280;7218;51.480;7.006;2023-03-20T01:31:15;100909.69;;;12.29;84.01
14269;BME280;7218;51.480;7.006;2023-03-20T01:33:42;100896.81;;;12.66;81.81
14269;BME280;7218;51.480;7.006;2023-03-20T01:36:09;100913.56;;;12.05;83.99
14269;BME280;7218;51.480;7.006;2023-03-20T01:38:37;100925.81;;;12.54;81.88
14269;BME280;7218;51.480;7.006;2023-03-20T01:41:07;100918.84;;;12.54;80.80
14269;BME280;7218;51.480;7.006;2023-03-20T01:43:36;100917.72;;;12.69;80.58
14269;BME280;7218;51.480;7.006;2023-03-20T01:46:14;100913.34;;;12.69;79.85
14269;BME280;7218;51.480;7.006;2023-03-20T01:49:08;100917.09;;;13.01;78.36
14269;BME280;7218;51.480;7.006;2023-03-20T01:51:55;100904.09;;;12.96;78.10
14269;BME280;7218;51.480;7.006;2023-03-20T01:54:25;100898.72;;;13.04;77.51
14269;BME280;7218;51.480;7.006;2023-03-20T01:56:57;100904.22;;;12.41;80.51
14269;BME280;7218;51.480;7.006;2023-03-20T01:59:27;100908.47;;;12.48;79.64
14269;BME280;7218;51.480;7.006;2023-03-20T02:01:56;100906.97;;;12.33;79.06
14269;BME280;7218;51.480;7.006;2023-03-20T02:04:26;100899.75;;;12.47;77.15
14269;BME280;7218;51.480;7.006;2023-03-20T02:06:55;100906.31;;;12.71;75.84
14269;BME280;7218;51.480;7.006;2023-03-20T02:09:22;100911.25;;;12.88;75.47
14269;BME280;7218;51.480;7.006;2023-03-20T02:11:50;100913.72;;;12.46;76.48
14269;BME280;7218;51.480;7.006;2023-03-20T02:14:17;100915.47;;;11.92;77.64
14269;BME280;7218;51.480;7.006;2023-03-20T02:16:45;100922.59;;;11.81;79.29
14269;BME280;7218;51.480;7.006;2023-03-20T02:19:24;100927.09;;;12.30;77.50
14269;BME280;7218;51.480;7.006;2023-03-20T02:22:17;100923.31;;;12.46;76.71
14269;BME280;7218;51.480;7.006;2023-03-20T02:28:08;100910.16;;;12.52;74.78
14269;BME280;7218;51.480;7.006;2023-03-20T02:31:08;100903.03;;;12.60;73.54
14269;BME280;7218;51.480;7.006;2023-03-20T02:40:10;100926.34;;;12.22;73.97
14269;BME280;7218;51.480;7.006;2023-03-20T02:42:44;100916.59;;;11.72;75.69
14269;BME280;7218;51.480;7.006;2023-03-20T02:45:21;100920.06;;;12.32;74.47
14269;BME280;7218;51.480;7.006;2023-03-20T02:47:55;100928.09;;;12.21;74.06
14269;BME280;7218;51.480;7.006;2023-03-20T02:50:32;100930.88;;;12.11;74.25
14269;BME280;7218;51.480;7.006;2023-03-20T02:53:08;100930.06;;;12.07;73.66
14269;BME280;7218;51.480;7.006;2023-03-20T02:55:44;100925.84;;;11.98;73.85
14269;BME280;7218;51.480;7.006;2023-03-20T02:58:15;100926.19;;;11.71;75.20
14269;BME280;7218;51.480;7.006;2023-03-20T03:00:49;100927.91;;;11.72;73.98
14269;BME280;7218;51.480;7.006;2023-03-20T03:03:19;100932.81;;;11.98;72.84
14269;BME280;7218;51.480;7.006;2023-03-20T03:05:52;100930.91;;;12.07;73.32
14269;BME280;7218;51.480;7.006;2023-03-20T03:08:22;100927.66;;;11.93;73.60
14269;BME280;7218;51.480;7.006;2023-03-20T03:10:54;100924.50;;;12.30;72.62
14269;BME280;7218;51.480;7.006;2023-03-20T03:13:27;100934.22;;;12.20;72.49
14269;BME280;7218;51.480;7.006;2023-03-20T03:15:58;100945.28;;;11.79;74.01
14269;BME280;7218;51.480;7.006;2023-03-20T03:18:29;100928.94;;;12.23;72.24
14269;BME280;7218;51.480;7.006;2023-03-20T03:20:59;100912.97;;;12.40;72.53
14269;BME280;7218;51.480;7.006;2023-03-20T03:23:28;100910.22;;;11.95;74.48
14269;BME280;7218;51.480;7.006;2023-03-20T03:25:58;100895.16;;;11.50;75.46
14269;BME280;7218;51.480;7.006;2023-03-20T03:28:28;100893.44;;;12.08;73.32
14269;BME280;7218;51.480;7.006;2023-03-20T03:31:01;100886.44;;;11.48;75.14
14269;BME280;7218;51.480;7.006;2023-03-20T03:33:31;100886.19;;;11.68;75.94
14269;BME280;7218;51.480;7.006;2023-03-20T03:36:07;100865.72;;;11.98;75.12
14269;BME280;7218;51.480;7.006;2023-03-20T03:38:41;100854.75;;;11.72;76.75
14269;BME280;7218;51.480;7.006;2023-03-20T03:41:24;100864.47;;;12.21;74.30
14269;BME280;7218;51.480;7.006;2023-03-20T03:43:58;100880.75;;;11.83;76.38
14269;BME280;7218;51.480;7.006;2023-03-20T03:46:33;100879.03;;;11.83;76.24
14269;BME280;7218;51.480;7.006;2023-03-20T03:49:04;100881.09;;;12.18;75.17
14269;BME280;7218;51.480;7.006;2023-03-20T03:51:35;100883.00;;;12.05;75.26
14269;BME280;7218;51.480;7.006;2023-03-20T03:54:08;100888.63;;;11.81;77.11
14269;BME280;7218;51.480;7.006;2023-03-20T03:56:39;100899.88;;;11.86;77.01
14269;BME280;7218;51.480;7.006;2023-03-20T03:59:09;100911.75;;;12.08;76.75
14269;BME280;7218;51.480;7.006;2023-03-20T04:01:37;100903.34;;;11.88;77.24
14269;BME280;7218;51.480;7.006;2023-03-20T04:04:09;100915.47;;;12.46;74.84
14269;BME280;7218;51.480;7.006;2023-03-20T04:06:37;100925.06;;;11.92;77.96
14269;BME280;7218;51.480;7.006;2023-03-20T04:09:04;100920.75;;;11.89;78.25
14269;BME280;7218;51.480;7.006;2023-03-20T04:11:31;100917.72;;;11.52;80.29
14269;BME280;7218;51.480;7.006;2023-03-20T04:14:01;100918.66;;;11.48;82.13
14269;BME280;7218;51.480;7.006;2023-03-20T04:16:27;100908.06;;;11.59;81.78
14269;BME280;7218;51.480;7.006;2023-03-20T04:18:54;100902.38;;;11.27;84.08
14269;BME280;7218;51.480;7.006;2023-03-20T04:21:21;100905.31;;;11.01;85.45
14269;BME280;7218;51.480;7.006;2023-03-20T04:23:47;100902.66;;;11.05;85.60
14269;BME280;7218;51.480;7.006;2023-03-20T04:26:14;100887.38;;;11.45;83.49
14269;BME280;7218;51.480;7.006;2023-03-20T04:28:40;100887.25;;;11.51;82.84
14269;BME280;7218;51.480;7.006;2023-03-20T04:31:08;100878.53;;;11.55;83.05
14269;BME280;7218;51.480;7.006;2023-03-20T04:33:35;100879.16;;;11.71;82.27
14269;BME280;7218;51.480;7.006;2023-03-20T04:36:02;100879.81;;;11.88;80.93
14269;BME280;7218;51.480;7.006;2023-03-20T04:38:30;100879.28;;;11.62;81.25
14269;BME280;7218;51.480;7.006;2023-03-20T04:40:56;100884.34;;;11.07;85.38
14269;BME280;7218;51.480;7.006;2023-03-20T04:43:23;100875.88;;;11.57;81.77
14269;BME280;7218;51.480;7.006;2023-03-20T04:45:50;100884.31;;;11.80;80.45
14269;BME280;7218;51.480;7.006;2023-03-20T04:48:17;100864.53;;;12.18;79.29
14269;BME280;7218;51.480;7.006;2023-03-20T04:50:44;100862.88;;;11.55;82.32
14269;BME280;7218;51.480;7.006;2023-03-20T04:53:12;100859.13;;;11.72;82.49
14269;BME280;7218;51.480;7.006;2023-03-20T04:55:39;100853.44;;;11.45;83.10
14269;BME280;7218;51.480;7.006;2023-03-20T04:58:06;100858.03;;;11.25;84.03
14269;BME280;7218;51.480;7.006;2023-03-20T05:00:32;100860.91;;;11.05;85.42
14269;BME280;7218;51.480;7.006;2023-03-20T05:02:59;100854.88;;;10.97;86.62
14269;BME280;7218;51.480;7.006;2023-03-20T05:05:27;100865.75;;;11.33;85.91
14269;BME280;7218;51.480;7.006;2023-03-20T05:07:54;100862.31;;;11.31;85.17
14269;BME280;7218;51.480;7.006;2023-03-20T05:10:20;100864.34;;;11.06;85.75
14269;BME280;7218;51.480;7.006;2023-03-20T05:12:47;100868.50;;;11.22;85.72
14269;BME280;7218;51.480;7.006;2023-03-20T05:15:13;100873.63;;;10.52;89.58
14269;BME280;7218;51.480;7.006;2023-03-20T05:17:40;100887.69;;;10.39;90.60
14269;BME280;7218;51.480;7.006;2023-03-20T05:20:07;100880.34;;;10.77;88.72
14269;BME280;7218;51.480;7.006;2023-03-20T05:22:35;100881.09;;;10.90;88.55
14269;BME280;7218;51.480;7.006;2023-03-20T05:25:01;100873.69;;;10.47;89.65
14269;BME280;7218;51.480;7.006;2023-03-20T05:27:28;100880.63;;;10.50;89.92
14269;BME280;7218;51.480;7.006;2023-03-20T05:29:55;100883.81;;;10.81;88.85
14269;BME280;7218;51.480;7.006;2023-03-20T05:32:21;100883.06;;;10.66;88.33
14269;BME280;7218;51.480;7.006;2023-03-20T05:34:47;100886.72;;;10.47;89.61
14269;BME280;7218;51.480;7.006;2023-03-20T05:37:14;100882.94;;;10.77;88.72
14269;BME280;7218;51.480;7.006;2023-03-20T05:39:42;100890.25;;;10.42;89.67
14269;BME280;7218;51.480;7.006;2023-03-20T05:42:08;100886.72;;;10.50;89.14
14269;BME280;7218;51.480;7.006;2023-03-20T05:44:35;100891.00;;;10.56;89.28
14269;BME280;7218;51.480;7.006;2023-03-20T05:47:01;100893.72;;;10.44;89.26
14269;BME280;7218;51.480;7.006;2023-03-20T05:49:28;100895.59;;;10.26;89.26
14269;BME280;7218;51.480;7.006;2023-03-20T05:51:54;100891.03;;;10.54;88.61
14269;BME280;7218;51.480;7.006;2023-03-20T05:54:21;100894.59;;;10.44;88.39
14269;BME280;7218;51.480;7.006;2023-03-20T05:56:49;100890.16;;;10.52;88.25
14269;BME280;7218;51.480;7.006;2023-03-20T05:59:15;100890.19;;;10.51;87.66
14269;BME280;7218;51.480;7.006;2023-03-20T06:01:41;100893.25;;;9.87;90.30
14269;BME280;7218;51.480;7.006;2023-03-20T06:04:08;100898.44;;;9.94;89.43
14269;BME280;7218;51.480;7.006;2023-03-20T06:06:37;100891.31;;;10.21;88.86
14269;BME280;7218;51.480;7.006;2023-03-20T06:09:05;100888.88;;;9.95;89.01
14269;BME280;7218;51.480;7.006;2023-03-20T06:11:32;100888.72;;;10.13;87.75
14269;BME280;7218;51.480;7.006;2023-03-20T06:14:00;100882.91;;;9.81;90.18
14269;BME280;7218;51.480;7.006;2023-03-20T06:16:26;100884.38;;;10.12;86.98
14269;BME280;7218;51.480;7.006;2023-03-20T06:18:53;100889.97;;;9.61;89.99
14269;BME280;7218;51.480;7.006;2023-03-20T06:21:19;100902.66;;;10.08;88.17
14269;BME280;7218;51.480;7.006;2023-03-20T06:23:46;100909.22;;;10.60;85.01
14269;BME280;7218;51.480;7.006;2023-03-20T06:26:12;100898.63;;;9.63;89.26
14269;BME280;7218;51.480;7.006;2023-03-20T06:28:39;100896.94;;;9.52;89.07
14269;BME280;7218;51.480;7.006;2023-03-20T06:31:07;100906.25;;;9.96;88.19
14269;BME280;7218;51.480;7.006;2023-03-20T06:33:34;100903.53;;;10.08;86.74
14269;BME280;7218;51.480;7.006;2023-03-20T06:36:02;100903.41;;;10.26;85.23
14269;BME280;7218;51.480;7.006;2023-03-20T06:38:29;100911.66;;;9.61;88.33
14269;BME280;7218;51.480;7.006;2023-03-20T06:40:55;100910.44;;;10.12;85.44
14269;BME280;7218;51.480;7.006;2023-03-20T06:43:21;100907.97;;;10.96;82.14
14269;BME280;7218;51.480;7.006;2023-03-20T06:45:48;100923.34;;;10.35;83.78
14269;BME280;7218;51.480;7.006;2023-03-20T06:48:16;100924.91;;;10.56;83.88
14269;BME280;7218;51.480;7.006;2023-03-20T06:50:46;100934.75;;;10.14;84.67
14269;BME280;7218;51.480;7.006;2023-03-20T06:53:13;100936.44;;;10.27;84.82
14269;BME280;7218;51.480;7.006;2023-03-20T06:55:39;100932.22;;;10.02;85.47
14269;BME280;7218;51.480;7.006;2023-03-20T06:58:06;100935.44;;;10.45;83.70
14269;BME280;7218;51.480;7.006;2023-03-20T07:00:32;100934.72;;;10.23;83.78
14269;BME280;7218;51.480;7.006;2023-03-20T07:02:59;100933.78;;;10.32;84.21
14269;BME280;7218;51.480;7.006;2023-03-20T07:05:27;100938.19;;;10.25;84.90
14269;BME280;7218;51.480;7.006;2023-03-20T07:07:53;100948.09;;;9.64;86.40
14269;BME280;7218;51.480;7.006;2023-03-20T07:10:20;100949.72;;;9.85;85.61
14269;BME280;7218;51.480;7.006;2023-03-20T07:12:47;100939.69;;;10.54;83.25
14269;BME280;7218;51.480;7.006;2023-03-20T07:15:15;100945.94;;;10.34;82.23
14269;BME280;7218;51.480;7.006;2023-03-20T07:17:41;100941.75;;;10.11;84.00
14269;BME280;7218;51.480;7.006;2023-03-20T07:20:09;100945.06;;;10.34;83.42
14269;BME280;7218;51.480;7.006;2023-03-20T07:22:38;100935.06;;;10.83;81.34
14269;BME280;7218;51.480;7.006;2023-03-20T07:25:07;100932.97;;;10.24;83.03
14269;BME280;7218;51.480;7.006;2023-03-20T07:27:35;100944.81;;;10.66;81.93
14269;BME280;7218;51.480;7.006;2023-03-20T07:30:02;100949.84;;;10.86;79.82
14269;BME280;7218;51.480;7.006;2023-03-20T07:32:28;100948.94;;;10.88;78.55
14269;BME280;7218;51.480;7.006;2023-03-20T07:34:55;100955.91;;;10.88;80.83
14269;BME280;7218;51.480;7.006;2023-03-20T07:37:21;100961.09;;;10.88;79.26
14269;BME280;7218;51.480;7.006;2023-03-20T07:39:49;100946.81;;;11.22;78.76
14269;BME280;7218;51.480;7.006;2023-03-20T07:42:16;100953.13;;;11.03;78.74
14269;BME280;7218;51.480;7.006;2023-03-20T07:44:42;100958.69;;;10.69;80.41
14269;BME280;7218;51.480;7.006;2023-03-20T07:47:09;100967.00;;;11.08;78.25
14269;BME280;7218;51.480;7.006;2023-03-20T07:49:35;100960.41;;;11.51;76.68
14269;BME280;7218;51.480;7.006;2023-03-20T07:52:02;100966.78;;;11.26;77.41
14269;BME280;7218;51.480;7.006;2023-03-20T07:54:28;100962.53;;;11.19;78.13
14269;BME280;7218;51.480;7.006;2023-03-20T07:56:56;100970.66;;;10.90;79.71
14269;BME280;7218;51.480;7.006;2023-03-20T07:59:22;100972.38;;;10.91;79.69
14269;BME280;7218;51.480;7.006;2023-03-20T08:01:49;100960.97;;;11.76;76.56
14269;BME280;7218;51.480;7.006;2023-03-20T08:04:16;100967.81;;;11.11;77.53
14269;BME280;7218;51.480;7.006;2023-03-20T08:06:45;100963.94;;;11.47;75.75
14269;BME280;7218;51.480;7.006;2023-03-20T08:09:11;100961.03;;;11.73;74.64
14269;BME280;7218;51.480;7.006;2023-03-20T08:11:38;100965.34;;;11.01;78.15
14269;BME280;7218;51.480;7.006;2023-03-20T08:14:06;100962.81;;;11.66;76.00
14269;BME280;7218;51.480;7.006;2023-03-20T08:16:33;100980.47;;;11.49;75.36
14269;BME280;7218;51.480;7.006;2023-03-20T08:18:59;100967.97;;;11.71;74.97
14269;BME280;7218;51.480;7.006;2023-03-20T08:21:27;100968.53;;;11.97;72.81
14269;BME280;7218;51.480;7.006;2023-03-20T08:23:54;100993.91;;;11.14;75.25
14269;BME280;7218;51.480;7.006;2023-03-20T08:26:20;100980.44;;;11.51;74.25
14269;BME280;7218;51.480;7.006;2023-03-20T08:28:47;100966.44;;;11.56;74.08
14269;BME280;7218;51.480;7.006;2023-03-20T08:31:15;100991.81;;;10.60;77.17
14269;BME280;7218;51.480;7.006;2023-03-20T08:33:42;100989.28;;;10.51;78.30
14269;BME280;7218;51.480;7.006;2023-03-20T08:36:09;100969.03;;;11.56;74.22
14269;BME280;7218;51.480;7.006;2023-03-20T08:38:36;100978.84;;;12.10;69.81
14269;BME280;7218;51.480;7.006;2023-03-20T08:41:03;100974.13;;;11.69;71.65
14269;BME280;7218;51.480;7.006;2023-03-20T08:43:29;100981.44;;;11.39;72.98
14269;BME280;7218;51.480;7.006;2023-03-20T08:45:56;100981.94;;;11.70;70.58
14269;BME280;7218;51.480;7.006;2023-03-20T08:48:24;100969.03;;;12.24;68.65
14269;BME280;7218;51.480;7.006;2023-03-20T08:50:51;100981.63;;;11.26;69.88
14269;BME280;7218;51.480;7.006;2023-03-20T08:53:17;100964.16;;;11.99;67.82
14269;BME280;7218;51.480;7.006;2023-03-20T08:55:46;100964.50;;;11.71;68.15
14269;BME280;7218;51.480;7.006;2023-03-20T08:58:14;100957.78;;;11.51;69.94
14269;BME280;7218;51.480;7.006;2023-03-20T09:00:40;100961.25;;;11.55;67.97
14269;BME280;7218;51.480;7.006;2023-03-20T09:03:11;100956.97;;;11.48;66.71
14269;BME280;7218;51.480;7.006;2023-03-20T09:05:40;100964.06;;;11.38;66.58
14269;BME280;7218;51.480;7.006;2023-03-20T09:08:06;100966.78;;;11.98;64.08
14269;BME280;7218;51.480;7.006;2023-03-20T09:10:33;100964.72;;;11.55;63.87
14269;BME280;7218;51.480;7.006;2023-03-20T09:12:59;100963.00;;;11.53;65.65
14269;BME280;7218;51.480;7.006;2023-03-20T09:15:26;100967.00;;;11.06;66.41
14269;BME280;7218;51.480;7.006;2023-03-20T09:17:53;100968.56;;;11.22;66.66
14269;BME280;7218;51.480;7.006;2023-03-20T09:20:19;100964.63;;;11.63;66.59
14269;BME280;7218;51.480;7.006;2023-03-20T09:22:47;100962.44;;;11.98;66.56
14269;BME280;7218;51.480;7.006;2023-03-20T09:25:14;100956.41;;;12.50;64.42
14269;BME280;7218;51.480;7.006;2023-03-20T09:27:41;100968.22;;;12.19;63.57
14269;BME280;7218;51.480;7.006;2023-03-20T09:30:09;100978.47;;;10.93;68.42
14269;BME280;7218;51.480;7.006;2023-03-20T09:32:36;100978.97;;;11.29;67.36
14269;BME280;7218;51.480;7.006;2023-03-20T09:35:03;100966.81;;;11.25;65.98
14269;BME280;7218;51.480;7.006;2023-03-20T09:37:30;100969.41;;;11.98;64.27
14269;BME280;7218;51.480;7.006;2023-03-20T09:39:58;100965.53;;;12.23;62.81
14269;BME280;7218;51.480;7.006;2023-03-20T09:42:34;100966.66;;;12.61;61.20
14269;BME280;7218;51.480;7.006;2023-03-20T09:45:09;100982.75;;;10.97;66.68
14269;BME280;7218;51.480;7.006;2023-03-20T09:47:42;100967.50;;;12.09;62.01
14269;BME280;7218;51.480;7.006;2023-03-20T09:50:21;100960.97;;;12.37;60.51
14269;BME280;7218;51.480;7.006;2023-03-20T09:52:55;100975.13;;;11.60;61.49
14269;BME280;7218;51.480;7.006;2023-03-20T09:55:30;100971.41;;;11.78;60.51
14269;BME280;7218;51.480;7.006;2023-03-20T09:58:03;100978.91;;;11.33;61.33
14269;BME280;7218;51.480;7.006;2023-03-20T10:00:33;100983.63;;;10.98;62.32
14269;BME280;7218;51.480;7.006;2023-03-20T10:03:03;100978.63;;;11.56;61.02
14269;BME280;7218;51.480;7.006;2023-03-20T10:05:34;100992.88;;;11.29;59.74
14269;BME280;7218;51.480;7.006;2023-03-20T10:08:03;100982.66;;;11.09;60.72
14269;BME280;7218;51.480;7.006;2023-03-20T10:10:39;100964.50;;;11.71;56.85
14269;BME280;7218;51.480;7.006;2023-03-20T10:13:19;100970.59;;;11.74;57.17
14269;BME280;7218;51.480;7.006;2023-03-20T10:16:00;100972.81;;;12.04;55.77
14269;BME280;7218;51.480;7.006;2023-03-20T10:18:33;100973.41;;;12.75;53.42
14269;BME280;7218;51.480;7.006;2023-03-20T10:21:04;100974.06;;;11.72;55.77
14269;BME280;7218;51.480;7.006;2023-03-20T10:23:35;100966.06;;;11.87;55.21
14269;BME280;7218;51.480;7.006;2023-03-20T10:26:10;100972.81;;;12.01;54.92
14269;BME280;7218;51.480;7.006;2023-03-20T10:28:42;100965.91;;;11.97;54.41
14269;BME280;7218;51.480;7.006;2023-03-20T10:31:22;100967.16;;;11.69;54.92
14269;BME280;7218;51.480;7.006;2023-03-20T10:33:58;100968.53;;;11.27;56.82
14269;BME280;7218;51.480;7.006;2023-03-20T10:36:38;100956.44;;;12.47;52.55
14269;BME280;7218;51.480;7.006;2023-03-20T10:39:13;100961.88;;;11.72;55.38
14269;BME280;7218;51.480;7.006;2023-03-20T10:41:49;100972.09;;;11.18;56.08
14269;BME280;7218;51.480;7.006;2023-03-20T10:44:23;100971.03;;;11.36;55.80
14269;BME280;7218;51.480;7.006;2023-03-20T10:46:55;100954.72;;;11.88;54.29
14269;BME280;7218;51.480;7.006;2023-03-20T10:49:29;100956.88;;;11.55;55.67
14269;BME280;7218;51.480;7.006;2023-03-20T10:52:01;100954.00;;;11.78;55.66
14269;BME280;7218;51.480;7.006;2023-03-20T10:54:30;100946.50;;;11.49;58.02
14269;BME280;7218;51.480;7.006;2023-03-20T10:57:01;100959.88;;;11.25;58.52
14269;BME280;7218;51.480;7.006;2023-03-20T10:59:32;100954.28;;;11.52;58.39
14269;BME280;7218;51.480;7.006;2023-03-20T11:02:00;100969.38;;;11.28;58.19
14269;BME280;7218;51.480;7.006;2023-03-20T11:04:26;100963.13;;;11.41;59.08
14269;BME280;7218;51.480;7.006;2023-03-20T11:06:57;100947.53;;;12.03;58.38
14269;BME280;7218;51.480;7.006;2023-03-20T11:12:03;100940.13;;;12.82;56.15
14269;BME280;7218;51.480;7.006;2023-03-20T11:14:32;100950.63;;;11.69;56.93
14269;BME280;7218;51.480;7.006;2023-03-20T11:17:01;100952.91;;;11.22;61.66
14269;BME280;7218;51.480;7.006;2023-03-20T11:19:32;100936.28;;;11.98;58.60
14269;BME280;7218;51.480;7.006;2023-03-20T11:22:08;100933.59;;;12.57;55.66
14269;BME280;7218;51.480;7.006;2023-03-20T11:24:39;100932.66;;;12.61;56.20
14269;BME280;7218;51.480;7.006;2023-03-20T11:27:09;100944.84;;;12.10;57.58
14269;BME280;7218;51.480;7.006;2023-03-20T11:29:37;100941.81;;;11.77;60.17
14269;BME280;7218;51.480;7.006;2023-03-20T11:32:06;100928.38;;;11.37;61.25
14269;BME280;7218;51.480;7.006;2023-03-20T11:34:37;100933.03;;;11.81;60.15
14269;BME280;7218;51.480;7.006;2023-03-20T11:37:21;100939.91;;;11.88;60.58
14269;BME280;7218;51.480;7.006;2023-03-20T11:39:56;100920.88;;;12.37;58.92
14269;BME280;7218;51.480;7.006;2023-03-20T11:42:26;100925.69;;;12.09;58.79
14269;BME280;7218;51.480;7.006;2023-03-20T11:45:02;100944.72;;;12.16;57.23
14269;BME280;7218;51.480;7.006;2023-03-20T11:47:31;100932.78;;;11.99;57.87
14269;BME280;7218;51.480;7.006;2023-03-20T11:50:00;100925.38;;;11.68;60.73
14269;BME280;7218;51.480;7.006;2023-03-20T11:52:30;100935.13;;;11.55;60.55
14269;BME280;7218;51.480;7.006;2023-03-20T11:54:59;100928.97;;;11.57;61.61
14269;BME280;7218;51.480;7.006;2023-03-20T11:57:32;100939.25;;;11.71;60.00
14269;BME280;7218;51.480;7.006;2023-03-20T12:00:03;100920.69;;;12.49;56.88
14269;BME280;7218;51.480;7.006;2023-03-20T12:02:30;100941.28;;;12.15;57.93
14269;BME280;7218;51.480;7.006;2023-03-20T12:04:58;100923.50;;;11.79;59.16
14269;BME280;7218;51.480;7.006;2023-03-20T12:07:28;100927.09;;;11.69;57.64
14269;BME280;7218;51.480;7.006;2023-03-20T12:09:56;100930.03;;;11.43;59.99
14269;BME280;7218;51.480;7.006;2023-03-20T12:12:32;100925.88;;;11.28;60.86
14269;BME280;7218;51.480;7.006;2023-03-20T12:15:04;100924.38;;;11.79;59.32
14269;BME280;7218;51.480;7.006;2023-03-20T12:17:39;100925.75;;;11.37;61.07
14269;BME280;7218;51.480;7.006;2023-03-20T12:20:16;100937.75;;;11.55;60.66
14269;BME280;7218;51.480;7.006;2023-03-20T12:22:49;100918.91;;;11.30;62.08
14269;BME280;7218;51.480;7.006;2023-03-20T12:25:20;100927.38;;;11.46;61.55
14269;BME280;7218;51.480;7.006;2023-03-20T12:27:52;100924.19;;;11.22;63.56
14269;BME280;7218;51.480;7.006;2023-03-20T12:30:27;100922.88;;;11.57;62.42
14269;BME280;7218;51.480;7.006;2023-03-20T12:33:01;100916.66;;;11.69;62.74
14269;BME280;7218;51.480;7.006;2023-03-20T12:35:43;100933.88;;;11.14;64.77
14269;BME280;7218;51.480;7.006;2023-03-20T12:38:20;100919.66;;;11.37;64.74
14269;BME280;7218;51.480;7.006;2023-03-20T12:40:50;100927.66;;;11.25;65.53
14269;BME280;7218;51.480;7.006;2023-03-20T12:43:24;100922.84;;;10.88;68.09
14269;BME280;7218;51.480;7.006;2023-03-20T12:46:01;100928.50;;;11.27;66.18
14269;BME280;7218;51.480;7.006;2023-03-20T12:48:41;100920.41;;;11.49;64.15
14269;BME280;7218;51.480;7.006;2023-03-20T12:51:16;100912.63;;;12.07;64.19
14269;BME280;7218;51.480;7.006;2023-03-20T12:53:54;100912.09;;;11.84;65.82
14269;BME280;7218;51.480;7.006;2023-03-20T12:56:33;100910.84;;;12.10;65.84
14269;BME280;7218;51.480;7.006;2023-03-20T12:59:11;100902.47;;;12.41;64.81
14269;BME280;7218;51.480;7.006;2023-03-20T13:01:43;100902.53;;;11.85;69.51
14269;BME280;7218;51.480;7.006;2023-03-20T13:04:27;100896.59;;;12.29;65.97
14269;BME280;7218;51.480;7.006;2023-03-20T13:07:02;100894.47;;;11.33;68.01
14269;BME280;7218;51.480;7.006;2023-03-20T13:09:50;100894.84;;;11.73;66.75
14269;BME280;7218;51.480;7.006;2023-03-20T13:12:31;100902.22;;;10.62;71.41
14269;BME280;7218;51.480;7.006;2023-03-20T13:15:13;100890.81;;;11.49;69.46
14269;BME280;7218;51.480;7.006;2023-03-20T13:17:48;100881.31;;;12.04;66.04
14269;BME280;7218;51.480;7.006;2023-03-20T13:20:23;100898.06;;;11.26;68.80
14269;BME280;7218;51.480;7.006;2023-03-20T13:23:09;100888.31;;;11.40;67.96
14269;BME280;7218;51.480;7.006;2023-03-20T13:25:47;100890.25;;;11.26;69.03
14269;BME280;7218;51.480;7.006;2023-03-20T13:28:22;100882.75;;;11.64;68.32